EWG6DJ EDDK-LSZH
Flight info
| Callsign | EWG6DJ |
|---|---|
| Flight time | 0h 45m |
| Altitude | 31000 |
| Route | KUMIK2Q KUMIK Y854 BOMBI T721 RILAX DCT |
| Aircraft | A320/M-SDE2E3FGIJ1RWXYZ/HB1 |
Departure
| Time | 2026-04-26 08:39 |
|---|---|
| Airport | Cologne Bonn Airport (EDDK) |
Arrival
| Time | 2026-04-26 09:25 |
|---|---|
| Airport | Zürich Airport (LSZH) |
| Time | Latitude | Longitude | Altitude | Speed | Heading |
|---|---|---|---|---|---|
| 2026-04-26 08:14 | 50.87637 | 7.12291 | 232 ft | 0 kts | 52° |
| 2026-04-26 08:31 | 50.87637 | 7.12290 | 233 ft | 2 kts | 52° |
| 2026-04-26 08:31 | 50.87621 | 7.12260 | 235 ft | 2 kts | 52° |
| 2026-04-26 08:31 | 50.87609 | 7.12231 | 234 ft | 4 kts | 66° |
| 2026-04-26 08:31 | 50.87603 | 7.12192 | 233 ft | 4 kts | 97° |
| 2026-04-26 08:32 | 50.87608 | 7.12161 | 234 ft | 0 kts | 117° |
| 2026-04-26 08:35 | 50.87605 | 7.12172 | 235 ft | 5 kts | 117° |
| 2026-04-26 08:36 | 50.87575 | 7.12261 | 232 ft | 10 kts | 118° |
| 2026-04-26 08:36 | 50.87544 | 7.12354 | 232 ft | 9 kts | 117° |
| 2026-04-26 08:36 | 50.87560 | 7.12445 | 232 ft | 11 kts | 34° |
| 2026-04-26 08:36 | 50.87637 | 7.12484 | 232 ft | 13 kts | 18° |
| 2026-04-26 08:37 | 50.87729 | 7.12531 | 232 ft | 15 kts | 18° |
| 2026-04-26 08:37 | 50.87835 | 7.12586 | 232 ft | 16 kts | 18° |
| 2026-04-26 08:37 | 50.87923 | 7.12634 | 234 ft | 14 kts | 26° |
| 2026-04-26 08:37 | 50.87991 | 7.12746 | 238 ft | 14 kts | 63° |
| 2026-04-26 08:38 | 50.88009 | 7.12883 | 239 ft | 13 kts | 95° |
| 2026-04-26 08:38 | 50.87976 | 7.13012 | 239 ft | 12 kts | 131° |
| 2026-04-26 08:38 | 50.87907 | 7.13110 | 239 ft | 19 kts | 137° |
| 2026-04-26 08:38 | 50.87633 | 7.13508 | 239 ft | 91 kts | 137° |
| 2026-04-26 08:39 | 50.87006 | 7.14418 | 256 ft | 149 kts | 137° |
| 2026-04-26 08:39 | 50.86175 | 7.15616 | 720 ft | 162 kts | 136° |
| 2026-04-26 08:39 | 50.85344 | 7.16788 | 1552 ft | 162 kts | 137° |
| 2026-04-26 08:39 | 50.84507 | 7.17966 | 2402 ft | 160 kts | 137° |
| 2026-04-26 08:40 | 50.83677 | 7.19135 | 3134 ft | 159 kts | 136° |
| 2026-04-26 08:40 | 50.82839 | 7.20321 | 3693 ft | 169 kts | 136° |
| 2026-04-26 08:40 | 50.81991 | 7.21764 | 4050 ft | 190 kts | 121° |
| 2026-04-26 08:40 | 50.81471 | 7.23792 | 4376 ft | 210 kts | 97° |
| 2026-04-26 08:41 | 50.81274 | 7.26184 | 4873 ft | 231 kts | 95° |
| 2026-04-26 08:41 | 50.81054 | 7.28843 | 5340 ft | 256 kts | 95° |
| 2026-04-26 08:41 | 50.80810 | 7.31732 | 6022 ft | 272 kts | 95° |
| 2026-04-26 08:41 | 50.80549 | 7.34735 | 6913 ft | 279 kts | 95° |
| 2026-04-26 08:42 | 50.80283 | 7.37776 | 7768 ft | 285 kts | 95° |
| 2026-04-26 08:42 | 50.80006 | 7.40904 | 8682 ft | 290 kts | 95° |
| 2026-04-26 08:42 | 50.79723 | 7.44093 | 9603 ft | 295 kts | 95° |
| 2026-04-26 08:42 | 50.79434 | 7.47327 | 10482 ft | 300 kts | 96° |
| 2026-04-26 08:43 | 50.79132 | 7.50709 | 10866 ft | 323 kts | 96° |
| 2026-04-26 08:43 | 50.78813 | 7.54321 | 11378 ft | 338 kts | 96° |
| 2026-04-26 08:43 | 50.78526 | 7.58041 | 12151 ft | 343 kts | 91° |
| 2026-04-26 08:43 | 50.78627 | 7.61819 | 12960 ft | 345 kts | 79° |
| 2026-04-26 08:44 | 50.79048 | 7.65582 | 13766 ft | 349 kts | 78° |
| 2026-04-26 08:44 | 50.79479 | 7.69381 | 14509 ft | 353 kts | 78° |
| 2026-04-26 08:44 | 50.79905 | 7.73176 | 15194 ft | 357 kts | 78° |
| 2026-04-26 08:44 | 50.80339 | 7.77076 | 15894 ft | 361 kts | 79° |
| 2026-04-26 08:45 | 50.80774 | 7.81005 | 16591 ft | 364 kts | 79° |
| 2026-04-26 08:45 | 50.81212 | 7.84973 | 17298 ft | 368 kts | 79° |
| 2026-04-26 08:45 | 50.81647 | 7.88930 | 17978 ft | 371 kts | 79° |
| 2026-04-26 08:45 | 50.82093 | 7.92976 | 18649 ft | 375 kts | 79° |
| 2026-04-26 08:46 | 50.82525 | 7.97064 | 19229 ft | 379 kts | 83° |
| 2026-04-26 08:46 | 50.82518 | 8.01258 | 19782 ft | 384 kts | 97° |
| 2026-04-26 08:46 | 50.81847 | 8.05365 | 20332 ft | 389 kts | 112° |
| 2026-04-26 08:46 | 50.80538 | 8.09106 | 20898 ft | 391 kts | 127° |
| 2026-04-26 08:47 | 50.78667 | 8.12236 | 21467 ft | 393 kts | 142° |
| 2026-04-26 08:47 | 50.76401 | 8.14676 | 22022 ft | 396 kts | 149° |
| 2026-04-26 08:47 | 50.74070 | 8.17016 | 22578 ft | 399 kts | 149° |
| 2026-04-26 08:47 | 50.71718 | 8.19375 | 23130 ft | 402 kts | 149° |
| 2026-04-26 08:48 | 50.70149 | 8.20946 | 23495 ft | 404 kts | 149° |
| 2026-04-26 08:48 | 50.66957 | 8.24145 | 24161 ft | 408 kts | 149° |
| 2026-04-26 08:48 | 50.65370 | 8.25739 | 24466 ft | 409 kts | 149° |
| 2026-04-26 08:48 | 50.62964 | 8.28159 | 24923 ft | 411 kts | 149° |
| 2026-04-26 08:49 | 50.60544 | 8.30590 | 25401 ft | 413 kts | 149° |
| 2026-04-26 08:49 | 50.57311 | 8.33818 | 25998 ft | 416 kts | 149° |
| 2026-04-26 08:49 | 50.55653 | 8.35467 | 26315 ft | 416 kts | 149° |
| 2026-04-26 08:49 | 50.52393 | 8.38708 | 26926 ft | 419 kts | 149° |
| 2026-04-26 08:50 | 50.50753 | 8.40342 | 27197 ft | 421 kts | 149° |
| 2026-04-26 08:50 | 50.48269 | 8.42815 | 27608 ft | 423 kts | 149° |
| 2026-04-26 08:50 | 50.44957 | 8.46111 | 28152 ft | 427 kts | 149° |
| 2026-04-26 08:50 | 50.43285 | 8.47771 | 28424 ft | 428 kts | 149° |
| 2026-04-26 08:51 | 50.38217 | 8.52780 | 29230 ft | 432 kts | 150° |
| 2026-04-26 08:51 | 50.35628 | 8.55207 | 29627 ft | 434 kts | 152° |
| 2026-04-26 08:51 | 50.32981 | 8.57504 | 30013 ft | 436 kts | 154° |
| 2026-04-26 08:52 | 50.30291 | 8.59721 | 30435 ft | 437 kts | 155° |
| 2026-04-26 08:52 | 50.27584 | 8.61899 | 30756 ft | 438 kts | 155° |
| 2026-04-26 08:52 | 50.24862 | 8.64088 | 31073 ft | 440 kts | 155° |
| 2026-04-26 08:52 | 50.22142 | 8.66307 | 31267 ft | 441 kts | 154° |
| 2026-04-26 08:53 | 50.19462 | 8.68524 | 31302 ft | 426 kts | 154° |
| 2026-04-26 08:53 | 50.16891 | 8.70676 | 31303 ft | 414 kts | 154° |
| 2026-04-26 08:53 | 50.14401 | 8.72759 | 31304 ft | 409 kts | 154° |
| 2026-04-26 08:54 | 50.09392 | 8.76930 | 31304 ft | 407 kts | 154° |
| 2026-04-26 08:54 | 50.04292 | 8.80696 | 31300 ft | 403 kts | 165° |
| 2026-04-26 08:55 | 49.98919 | 8.83250 | 31294 ft | 403 kts | 166° |
| 2026-04-26 08:55 | 49.93575 | 8.85764 | 31298 ft | 403 kts | 166° |
| 2026-04-26 08:56 | 49.88205 | 8.88296 | 31286 ft | 402 kts | 166° |
| 2026-04-26 08:56 | 49.82841 | 8.90820 | 31279 ft | 402 kts | 166° |
| 2026-04-26 08:57 | 49.77484 | 8.93347 | 31273 ft | 402 kts | 166° |
| 2026-04-26 08:57 | 49.72130 | 8.95854 | 31271 ft | 402 kts | 166° |
| 2026-04-26 08:58 | 49.66761 | 8.98029 | 31253 ft | 398 kts | 175° |
| 2026-04-26 08:58 | 49.61288 | 8.97755 | 31242 ft | 392 kts | 193° |
| 2026-04-26 08:59 | 49.55916 | 8.96260 | 31250 ft | 392 kts | 193° |
| 2026-04-26 08:59 | 49.50534 | 8.94778 | 31249 ft | 393 kts | 193° |
| 2026-04-26 09:00 | 49.45146 | 8.93297 | 31105 ft | 392 kts | 193° |
| 2026-04-26 09:00 | 49.42468 | 8.92561 | 30857 ft | 390 kts | 193° |
| 2026-04-26 09:00 | 49.39804 | 8.91835 | 30597 ft | 387 kts | 193° |
| 2026-04-26 09:00 | 49.37195 | 8.91127 | 30357 ft | 385 kts | 193° |
| 2026-04-26 09:01 | 49.34564 | 8.90412 | 30072 ft | 383 kts | 193° |
| 2026-04-26 09:01 | 49.31950 | 8.89701 | 29786 ft | 381 kts | 193° |
| 2026-04-26 09:01 | 49.29332 | 8.88992 | 29501 ft | 380 kts | 193° |
| 2026-04-26 09:01 | 49.26732 | 8.88288 | 29217 ft | 379 kts | 193° |
| 2026-04-26 09:02 | 49.24142 | 8.87581 | 28938 ft | 377 kts | 193° |
| 2026-04-26 09:02 | 49.21561 | 8.86874 | 28659 ft | 376 kts | 193° |
| 2026-04-26 09:02 | 49.18991 | 8.86171 | 28389 ft | 375 kts | 193° |
| 2026-04-26 09:02 | 49.16424 | 8.85469 | 28102 ft | 374 kts | 193° |
| 2026-04-26 09:03 | 49.13898 | 8.84783 | 27839 ft | 373 kts | 193° |
| 2026-04-26 09:03 | 49.11350 | 8.84093 | 27576 ft | 371 kts | 193° |
| 2026-04-26 09:03 | 49.08810 | 8.83406 | 27312 ft | 370 kts | 193° |
| 2026-04-26 09:03 | 49.06276 | 8.82722 | 27061 ft | 369 kts | 193° |
| 2026-04-26 09:04 | 49.03750 | 8.82033 | 26799 ft | 368 kts | 193° |
| 2026-04-26 09:04 | 49.01232 | 8.81350 | 26546 ft | 367 kts | 193° |
| 2026-04-26 09:04 | 48.98716 | 8.80672 | 26291 ft | 366 kts | 193° |
| 2026-04-26 09:04 | 48.96209 | 8.79991 | 26031 ft | 365 kts | 193° |
| 2026-04-26 09:05 | 48.93701 | 8.79307 | 25784 ft | 365 kts | 193° |
| 2026-04-26 09:05 | 48.91201 | 8.78629 | 25540 ft | 364 kts | 192° |
| 2026-04-26 09:05 | 48.88709 | 8.77958 | 25295 ft | 363 kts | 192° |
| 2026-04-26 09:05 | 48.86224 | 8.77291 | 25055 ft | 362 kts | 192° |
| 2026-04-26 09:06 | 48.83745 | 8.76625 | 24807 ft | 361 kts | 192° |
| 2026-04-26 09:06 | 48.81299 | 8.75967 | 24577 ft | 360 kts | 192° |
| 2026-04-26 09:06 | 48.78827 | 8.75302 | 24341 ft | 359 kts | 192° |
| 2026-04-26 09:06 | 48.76368 | 8.74642 | 24110 ft | 359 kts | 192° |
| 2026-04-26 09:07 | 48.73909 | 8.73985 | 23866 ft | 358 kts | 192° |
| 2026-04-26 09:07 | 48.71454 | 8.73330 | 23601 ft | 357 kts | 192° |
| 2026-04-26 09:07 | 48.69008 | 8.72677 | 23322 ft | 356 kts | 192° |
| 2026-04-26 09:07 | 48.66602 | 8.72034 | 23054 ft | 355 kts | 192° |
| 2026-04-26 09:08 | 48.64173 | 8.71390 | 22788 ft | 354 kts | 192° |
| 2026-04-26 09:08 | 48.61750 | 8.70747 | 22520 ft | 352 kts | 192° |
| 2026-04-26 09:08 | 48.59333 | 8.70105 | 22254 ft | 351 kts | 192° |
| 2026-04-26 09:08 | 48.56925 | 8.69462 | 21990 ft | 350 kts | 192° |
| 2026-04-26 09:09 | 48.54556 | 8.68831 | 21729 ft | 349 kts | 192° |
| 2026-04-26 09:09 | 48.52167 | 8.68197 | 21473 ft | 348 kts | 192° |
| 2026-04-26 09:09 | 48.49783 | 8.67564 | 21217 ft | 347 kts | 192° |
| 2026-04-26 09:09 | 48.47409 | 8.66935 | 20963 ft | 346 kts | 192° |
| 2026-04-26 09:10 | 48.45040 | 8.66307 | 20710 ft | 345 kts | 192° |
| 2026-04-26 09:10 | 48.42696 | 8.65689 | 20383 ft | 340 kts | 192° |
| 2026-04-26 09:10 | 48.40370 | 8.65077 | 19968 ft | 338 kts | 192° |
| 2026-04-26 09:10 | 48.38054 | 8.64466 | 19544 ft | 337 kts | 192° |
| 2026-04-26 09:11 | 48.35742 | 8.63821 | 19121 ft | 337 kts | 193° |
| 2026-04-26 09:11 | 48.33440 | 8.63135 | 18695 ft | 336 kts | 193° |
| 2026-04-26 09:11 | 48.31151 | 8.62422 | 18250 ft | 336 kts | 193° |
| 2026-04-26 09:11 | 48.28868 | 8.61706 | 17833 ft | 334 kts | 193° |
| 2026-04-26 09:12 | 48.26622 | 8.61010 | 17431 ft | 333 kts | 193° |
| 2026-04-26 09:12 | 48.24358 | 8.60320 | 17020 ft | 331 kts | 193° |
| 2026-04-26 09:12 | 48.22101 | 8.59636 | 16625 ft | 330 kts | 193° |
| 2026-04-26 09:12 | 48.19851 | 8.58956 | 16230 ft | 329 kts | 193° |
| 2026-04-26 09:13 | 48.17607 | 8.58281 | 15840 ft | 328 kts | 193° |
| 2026-04-26 09:13 | 48.15364 | 8.57610 | 15448 ft | 328 kts | 193° |
| 2026-04-26 09:13 | 48.13128 | 8.56948 | 15060 ft | 327 kts | 192° |
| 2026-04-26 09:13 | 48.10895 | 8.56285 | 14662 ft | 326 kts | 192° |
| 2026-04-26 09:14 | 48.08691 | 8.55627 | 14278 ft | 326 kts | 192° |
| 2026-04-26 09:14 | 48.06463 | 8.54963 | 13864 ft | 326 kts | 192° |
| 2026-04-26 09:14 | 48.04243 | 8.54303 | 13448 ft | 324 kts | 192° |
| 2026-04-26 09:14 | 48.02040 | 8.53650 | 13056 ft | 322 kts | 192° |
| 2026-04-26 09:15 | 47.99842 | 8.53002 | 12650 ft | 321 kts | 192° |
| 2026-04-26 09:15 | 47.97650 | 8.52357 | 12251 ft | 320 kts | 192° |
| 2026-04-26 09:15 | 47.95467 | 8.51714 | 11845 ft | 319 kts | 192° |
| 2026-04-26 09:15 | 47.93300 | 8.51072 | 11613 ft | 312 kts | 192° |
| 2026-04-26 09:16 | 47.91221 | 8.50446 | 11374 ft | 307 kts | 192° |
| 2026-04-26 09:16 | 47.89134 | 8.49811 | 10988 ft | 307 kts | 192° |
| 2026-04-26 09:16 | 47.87049 | 8.49171 | 10533 ft | 304 kts | 192° |
| 2026-04-26 09:16 | 47.84984 | 8.48537 | 9897 ft | 301 kts | 192° |
| 2026-04-26 09:17 | 47.82938 | 8.47910 | 9299 ft | 301 kts | 192° |
| 2026-04-26 09:17 | 47.80880 | 8.47286 | 8807 ft | 303 kts | 191° |
| 2026-04-26 09:17 | 47.78808 | 8.46664 | 8295 ft | 302 kts | 191° |
| 2026-04-26 09:17 | 47.76781 | 8.46056 | 7792 ft | 293 kts | 191° |
| 2026-04-26 09:18 | 47.74809 | 8.45463 | 7296 ft | 284 kts | 191° |
| 2026-04-26 09:18 | 47.72908 | 8.44891 | 6803 ft | 279 kts | 191° |
| 2026-04-26 09:18 | 47.71021 | 8.44316 | 6306 ft | 273 kts | 193° |
| 2026-04-26 09:18 | 47.69262 | 8.43344 | 5789 ft | 268 kts | 206° |
| 2026-04-26 09:19 | 47.67755 | 8.41757 | 5292 ft | 264 kts | 221° |
| 2026-04-26 09:19 | 47.66497 | 8.39785 | 4774 ft | 261 kts | 225° |
| 2026-04-26 09:19 | 47.65284 | 8.37839 | 4357 ft | 249 kts | 226° |
| 2026-04-26 09:19 | 47.64047 | 8.36128 | 3990 ft | 236 kts | 206° |
| 2026-04-26 09:20 | 47.62585 | 8.35546 | 3993 ft | 218 kts | 176° |
| 2026-04-26 09:20 | 47.61167 | 8.36049 | 3992 ft | 203 kts | 148° |
| 2026-04-26 09:20 | 47.60108 | 8.37283 | 4010 ft | 185 kts | 134° |
| 2026-04-26 09:20 | 47.59189 | 8.38550 | 4003 ft | 177 kts | 134° |
| 2026-04-26 09:21 | 47.58287 | 8.39792 | 3982 ft | 176 kts | 134° |
| 2026-04-26 09:21 | 47.57386 | 8.41031 | 3835 ft | 176 kts | 133° |
| 2026-04-26 09:21 | 47.56492 | 8.42259 | 3639 ft | 175 kts | 133° |
| 2026-04-26 09:21 | 47.55590 | 8.43497 | 3412 ft | 177 kts | 133° |
| 2026-04-26 09:22 | 47.54706 | 8.44708 | 3222 ft | 167 kts | 133° |
| 2026-04-26 09:22 | 47.53895 | 8.45817 | 2977 ft | 152 kts | 133° |
| 2026-04-26 09:22 | 47.53154 | 8.46832 | 2790 ft | 143 kts | 132° |
| 2026-04-26 09:22 | 47.52436 | 8.47816 | 2595 ft | 138 kts | 133° |
| 2026-04-26 09:23 | 47.51735 | 8.48778 | 2419 ft | 137 kts | 132° |
| 2026-04-26 09:23 | 47.51039 | 8.49734 | 2218 ft | 137 kts | 133° |
| 2026-04-26 09:23 | 47.50338 | 8.50691 | 2018 ft | 137 kts | 132° |
| 2026-04-26 09:23 | 47.49642 | 8.51647 | 1820 ft | 136 kts | 134° |
| 2026-04-26 09:24 | 47.48942 | 8.52600 | 1652 ft | 137 kts | 134° |
| 2026-04-26 09:24 | 47.48238 | 8.53561 | 1471 ft | 138 kts | 131° |
| 2026-04-26 09:24 | 47.47577 | 8.54476 | 1396 ft | 112 kts | 138° |
| 2026-04-26 09:24 | 47.47131 | 8.55082 | 1385 ft | 62 kts | 137° |
| 2026-04-26 09:25 | 47.46882 | 8.55426 | 1400 ft | 46 kts | 136° |
| 2026-04-26 09:25 | 47.46669 | 8.55646 | 1398 ft | 27 kts | 161° |
| 2026-04-26 09:25 | 47.46538 | 8.55697 | 1402 ft | 15 kts | 168° |
| 2026-04-26 09:25 | 47.46441 | 8.55729 | 1404 ft | 13 kts | 167° |
| 2026-04-26 09:26 | 47.46370 | 8.55774 | 1406 ft | 10 kts | 139° |
| 2026-04-26 09:26 | 47.46327 | 8.55833 | 1408 ft | 10 kts | 137° |
| 2026-04-26 09:26 | 47.46266 | 8.55915 | 1406 ft | 11 kts | 137° |
| 2026-04-26 09:26 | 47.46221 | 8.55977 | 1409 ft | 7 kts | 137° |
| 2026-04-26 09:27 | 47.46161 | 8.56000 | 1406 ft | 10 kts | 186° |
| 2026-04-26 09:27 | 47.46091 | 8.55989 | 1407 ft | 9 kts | 185° |
| 2026-04-26 09:27 | 47.46029 | 8.55980 | 1407 ft | 9 kts | 186° |
| 2026-04-26 09:27 | 47.45950 | 8.55960 | 1406 ft | 13 kts | 199° |
| 2026-04-26 09:28 | 47.45871 | 8.55918 | 1414 ft | 10 kts | 200° |
| 2026-04-26 09:28 | 47.45804 | 8.55883 | 1410 ft | 14 kts | 196° |
| 2026-04-26 09:28 | 47.45691 | 8.55863 | 1410 ft | 15 kts | 186° |
| 2026-04-26 09:28 | 47.45618 | 8.55852 | 1410 ft | 9 kts | 186° |
| 2026-04-26 09:29 | 47.45555 | 8.55843 | 1408 ft | 10 kts | 186° |
| 2026-04-26 09:29 | 47.45506 | 8.55788 | 1410 ft | 10 kts | 262° |
| 2026-04-26 09:29 | 47.45504 | 8.55701 | 1407 ft | 7 kts | 227° |
| 2026-04-26 09:29 | 47.45456 | 8.55695 | 1410 ft | 3 kts | 185° |
| 2026-04-26 09:30 | 47.45435 | 8.55691 | 1407 ft | 3 kts | 186° |
| 2026-04-26 09:30 | 47.45434 | 8.55691 | 1407 ft | 0 kts | 186° |